Airfield :
LOGIN :

Register | Disclaimer

   EN    FR    IT 

 










Legend :    VFR   Marginal VFR   IFR   Intensive IFR   Very Intensive IFR
Visi :
Ceiling :
>= 8 km
>= 3000ft
5 to 8 km
1000 to 3000 ft
1500m to 5 km
500 to 1000 ft
800 to 1500m
200 to 500 ft
< 800m
< 200 ft
Symbols :   Thunderstorms  Fog  Heavy snow  Heavy precipitations  Wind > 20 kt
SIGMETs :     Misc.  Thunderstorms  Icing  Turbulence  Mountain Waves  Volcanic Ashes






- Airport Elevation : 38 ft
- IATA code : BOH


EGHH - Bournemouth

CURRENT METAR :
  • 241250Z 08005KT 040V100 9999 FEW009 BKN018 07/05 Q1023

EXPIRED METARs :
  • 241220Z 02004KT 9999 FEW009 SCT013 BKN018 06/05 Q1023
  • 241150Z 03008KT 9999 FEW005 SCT009 BKN015 06/04 Q1024
  • 241120Z 03008KT 8000 FEW005 SCT009 BKN015 06/05 Q1024
  • 241050Z 04006KT 9999 FEW011 BKN016 06/05 Q1024
  • 241020Z 04005KT 9999 FEW011 BKN016 06/05 Q1024

TAF TAF EGHH
Valid from the 24 at 12:00 until the 24 at 21:00 UTC


241105Z 2412/2421 02003KT 9999 FEW008 BKN020
TEMPO 2412/2421 7000 BKN010
PROB30
TEMPO 2412/2421 BKN008
PROB40
TEMPO 2415/2421 4500 BR
ATIS : +44 1202 364 151
Met : +44 1202 364 158 (TAF)



MET'MAP, your aeronautical weather chart ! - Copyright ORBIFLY December 2007 - Disclaimer

ORBIFLY MET'MAP TEAM :

Programming & Development : Alexandra Zaïnal
Concept & original design : Baudouin d'Aumeries
Assistance for programming : Marc-Olivier Méhu
Technical & hardware support : Manuel Goepfert

Contact : metmap@orbifly.com




SOURCES & CREDITS :

   NOAA